createdAt,value
2023-09-08T00:00:54.618Z,101225.22
2023-09-08T00:03:56.376Z,101210.38
2023-09-08T00:06:58.157Z,101228.59
2023-09-08T00:09:59.920Z,101219.91
2023-09-08T00:13:01.527Z,101222.94
2023-09-08T00:16:03.249Z,101218.47
2023-09-08T00:19:04.984Z,101217.03
2023-09-08T00:22:09.620Z,101211.78
2023-09-08T00:25:11.346Z,101217.81
2023-09-08T00:28:13.004Z,101216.28
2023-09-08T00:31:14.635Z,101223.44
2023-09-08T00:34:16.326Z,101215.56
2023-09-08T00:37:17.983Z,101219.06
2023-09-08T00:40:19.652Z,101221.28
2023-09-08T00:43:21.349Z,101216.88
2023-09-08T00:46:23.362Z,101217.94
2023-09-08T00:49:25.411Z,101222.66
2023-09-08T00:52:32.285Z,101211.25
2023-09-08T00:55:34.426Z,101211.25
2023-09-08T00:58:36.441Z,101201.06
2023-09-08T01:01:38.346Z,101194.28
2023-09-08T01:04:42.251Z,101208.41
2023-09-08T01:07:45.498Z,101206.28
2023-09-08T01:10:47.414Z,101203.19
2023-09-08T01:13:49.131Z,101194.72
2023-09-08T01:16:50.739Z,101197.22
2023-09-08T01:20:01.080Z,101200.94
2023-09-08T01:23:37.761Z,101196.84
2023-09-08T01:26:43.208Z,101195.03
2023-09-08T01:29:46.839Z,101200.13
2023-09-08T01:32:50.352Z,101185.56
2023-09-08T01:35:52.811Z,101193.97
2023-09-08T01:38:54.465Z,101191.78
2023-09-08T01:41:56.137Z,101191.84
2023-09-08T01:44:57.758Z,101180.97
2023-09-08T01:47:59.600Z,101180.75
2023-09-08T01:51:01.282Z,101187.88
2023-09-08T01:54:03.098Z,101191.81
2023-09-08T01:57:04.855Z,101182.22
2023-09-08T02:00:07.111Z,101192.38
2023-09-08T02:03:08.720Z,101195.63
2023-09-08T02:06:10.324Z,101197.91
2023-09-08T02:09:14.971Z,101187.19
2023-09-08T02:12:16.636Z,101193.19
2023-09-08T02:15:18.803Z,101194.16
2023-09-08T02:18:20.694Z,101184.97
2023-09-08T02:21:22.783Z,101187.19
2023-09-08T02:24:24.453Z,101189.84
2023-09-08T02:27:26.140Z,101171.41
2023-09-08T02:30:27.828Z,101168.75
2023-09-08T02:33:29.937Z,101177.53
2023-09-08T02:36:31.731Z,101193.72
2023-09-08T02:39:33.671Z,101181.69
2023-09-08T02:42:35.468Z,101181.22
2023-09-08T02:45:37.199Z,101185.22
2023-09-08T02:48:39.481Z,101184.09
2023-09-08T02:51:41.120Z,101180.13
2023-09-08T02:54:42.992Z,101177.66
2023-09-08T02:57:44.668Z,101179.00
2023-09-08T03:00:46.587Z,101170.50
2023-09-08T03:03:49.387Z,101180.91
2023-09-08T03:06:51.235Z,101173.91
2023-09-08T03:09:52.855Z,101180.91
2023-09-08T03:12:54.444Z,101179.25
2023-09-08T03:15:57.329Z,101183.88
2023-09-08T03:18:59.766Z,101170.53
2023-09-08T03:22:01.389Z,101181.94
2023-09-08T03:25:03.045Z,101179.81
2023-09-08T03:28:04.980Z,101190.03
2023-09-08T03:31:06.842Z,101194.28
2023-09-08T03:34:08.614Z,101190.81
2023-09-08T03:37:10.429Z,101179.97
2023-09-08T03:40:12.405Z,101184.31
2023-09-08T03:43:14.358Z,101197.47
2023-09-08T03:46:16.218Z,101197.59
2023-09-08T03:49:17.980Z,101204.03
2023-09-08T03:52:19.654Z,101201.81
2023-09-08T03:55:21.391Z,101198.34
2023-09-08T03:58:22.979Z,101203.19
2023-09-08T04:01:24.638Z,101187.81
2023-09-08T04:04:26.297Z,101199.53
2023-09-08T04:07:27.969Z,101201.91
2023-09-08T04:10:29.626Z,101211.72
2023-09-08T04:13:31.254Z,101194.53
2023-09-08T04:16:32.875Z,101216.84
2023-09-08T04:19:34.574Z,101220.75
2023-09-08T04:22:36.273Z,101211.25
2023-09-08T04:25:37.869Z,101216.69
2023-09-08T04:28:39.530Z,101218.59
2023-09-08T04:31:41.302Z,101219.00
2023-09-08T04:34:43.641Z,101216.22
2023-09-08T04:37:45.282Z,101214.22
2023-09-08T04:40:47.640Z,101215.63
2023-09-08T04:43:49.259Z,101210.03
2023-09-08T04:46:50.989Z,101215.19
2023-09-08T04:49:52.644Z,101227.13
2023-09-08T04:52:54.325Z,101229.56
2023-09-08T04:55:56.005Z,101228.88
2023-09-08T04:58:59.133Z,101233.47
2023-09-08T05:02:00.792Z,101229.28
2023-09-08T05:05:02.557Z,101229.63
2023-09-08T05:08:05.092Z,101222.38
2023-09-08T05:11:06.734Z,101236.88
2023-09-08T05:14:08.525Z,101229.44
2023-09-08T05:17:10.262Z,101234.06
2023-09-08T05:20:11.942Z,101244.31
2023-09-08T05:23:13.600Z,101238.53
2023-09-08T05:26:15.363Z,101235.44
2023-09-08T05:29:16.957Z,101234.34
2023-09-08T05:32:18.629Z,101227.22
2023-09-08T05:35:20.306Z,101233.06
2023-09-08T05:38:21.910Z,101241.09
2023-09-08T05:41:23.553Z,101240.41
2023-09-08T05:44:26.366Z,101240.75
2023-09-08T05:47:28.033Z,101238.91
2023-09-08T05:50:29.685Z,101243.91
2023-09-08T05:53:31.332Z,101250.22
2023-09-08T05:56:34.624Z,101244.53
2023-09-08T05:59:36.358Z,101242.94
2023-09-08T06:02:38.084Z,101248.06
2023-09-08T06:05:39.838Z,101248.28
2023-09-08T06:08:41.407Z,101246.03
2023-09-08T06:11:43.355Z,101256.28
2023-09-08T06:14:44.944Z,101247.94
2023-09-08T06:17:48.041Z,101250.25
2023-09-08T06:20:50.066Z,101253.03
2023-09-08T06:23:51.742Z,101255.97
2023-09-08T06:26:53.422Z,101260.31
2023-09-08T06:29:57.191Z,101259.56
2023-09-08T06:32:59.922Z,101253.22
2023-09-08T06:36:01.637Z,101253.88
2023-09-08T06:39:03.800Z,101255.31
2023-09-08T06:42:05.596Z,101253.41
2023-09-08T06:45:07.935Z,101255.00
2023-09-08T06:48:09.874Z,101242.28
2023-09-08T06:51:11.766Z,101254.00
2023-09-08T06:54:13.501Z,101248.94
2023-09-08T06:57:15.339Z,101261.03
2023-09-08T07:00:18.695Z,101263.63
2023-09-08T07:03:20.508Z,101260.22
2023-09-08T07:06:23.471Z,101255.97
2023-09-08T07:09:25.636Z,101252.53
2023-09-08T07:12:27.276Z,101250.50
2023-09-08T07:15:28.922Z,101251.78
2023-09-08T07:18:33.872Z,101244.09
2023-09-08T07:21:35.751Z,101239.44
2023-09-08T07:24:37.378Z,101238.28
2023-09-08T07:27:39.111Z,101237.25
2023-09-08T07:30:40.843Z,101232.66
2023-09-08T07:33:42.608Z,101243.06
2023-09-08T07:36:44.738Z,101234.34
2023-09-08T07:39:47.359Z,101244.94
2023-09-08T07:42:49.085Z,101240.78
2023-09-08T07:45:50.743Z,101248.00
2023-09-08T07:48:52.515Z,101247.94
2023-09-08T07:51:54.184Z,101248.81
2023-09-08T07:54:55.831Z,101246.28
2023-09-08T07:57:58.914Z,101242.09
2023-09-08T08:01:00.580Z,101231.66
2023-09-08T08:04:04.736Z,101229.94
2023-09-08T08:07:06.544Z,101235.03
2023-09-08T08:10:08.584Z,101233.38
2023-09-08T08:13:11.467Z,101227.25
2023-09-08T08:16:13.222Z,101222.16
2023-09-08T08:19:14.903Z,101224.88
2023-09-08T08:22:16.563Z,101213.47
2023-09-08T08:25:18.329Z,101215.09
2023-09-08T08:28:20.827Z,101220.94
2023-09-08T08:31:22.439Z,101212.00
2023-09-08T08:34:24.156Z,101214.47
2023-09-08T08:37:25.903Z,101217.59
2023-09-08T08:40:28.287Z,101199.50
2023-09-08T08:43:30.910Z,101208.88
2023-09-08T08:46:34.400Z,101214.25
2023-09-08T08:49:37.782Z,101212.44
2023-09-08T08:52:40.876Z,101205.16
2023-09-08T08:55:43.051Z,101202.88
2023-09-08T08:58:46.356Z,101214.97
2023-09-08T09:01:49.050Z,101205.41
2023-09-08T09:04:52.079Z,101201.31
2023-09-08T09:07:56.010Z,101200.97
2023-09-08T09:10:57.695Z,101205.47
2023-09-08T09:13:59.734Z,101204.38
2023-09-08T09:17:02.562Z,101202.81
2023-09-08T09:20:18.909Z,101198.44
2023-09-08T09:23:35.699Z,101202.78
2023-09-08T09:26:37.322Z,101195.16
2023-09-08T09:29:50.110Z,101196.34
2023-09-08T09:33:05.590Z,101189.28
2023-09-08T09:36:08.229Z,101196.22
2023-09-08T09:39:10.086Z,101190.72
2023-09-08T09:42:11.764Z,101196.53
2023-09-08T09:45:13.412Z,101188.94
2023-09-08T09:48:16.742Z,101181.50
2023-09-08T09:51:20.704Z,101188.88
2023-09-08T09:54:22.604Z,101178.16
2023-09-08T09:57:24.647Z,101184.66
2023-09-08T10:00:27.910Z,101183.38
2023-09-08T10:03:31.579Z,101188.56
2023-09-08T10:06:35.461Z,101179.13
2023-09-08T10:09:38.104Z,101187.84
2023-09-08T10:12:42.816Z,101179.41
2023-09-08T10:15:46.171Z,101173.44
2023-09-08T10:18:50.542Z,101184.38
2023-09-08T10:21:55.704Z,101171.06
2023-09-08T10:24:59.622Z,101174.41
2023-09-08T10:28:01.401Z,101174.59
2023-09-08T10:31:04.340Z,101171.88
2023-09-08T10:34:06.502Z,101165.31
2023-09-08T10:37:30.421Z,101161.47
2023-09-08T10:40:34.731Z,101158.00
2023-09-08T10:43:36.367Z,101170.28
2023-09-08T10:46:38.329Z,101160.19
2023-09-08T10:49:41.573Z,101154.38
2023-09-08T10:52:43.196Z,101159.91
2023-09-08T10:56:10.919Z,101146.22
2023-09-08T10:59:14.426Z,101149.81
2023-09-08T11:02:36.830Z,101141.41
2023-09-08T11:05:38.643Z,101145.78
2023-09-08T11:08:43.724Z,101143.06
2023-09-08T11:11:46.280Z,101140.78
2023-09-08T11:14:50.158Z,101137.03
2023-09-08T11:17:52.172Z,101131.56
2023-09-08T11:20:54.532Z,101133.72
2023-09-08T11:23:56.999Z,101133.84
2023-09-08T11:26:58.684Z,101120.78
2023-09-08T11:30:00.483Z,101117.16
2023-09-08T11:33:02.368Z,101112.56
2023-09-08T11:36:11.415Z,101115.88
2023-09-08T11:39:13.029Z,101107.25
2023-09-08T11:42:16.824Z,101102.72
2023-09-08T11:45:22.707Z,101109.91
2023-09-08T11:48:25.903Z,101102.63
2023-09-08T11:51:28.301Z,101102.13
2023-09-08T11:54:30.631Z,101097.69
2023-09-08T11:57:33.338Z,101097.63
2023-09-08T12:00:36.066Z,101091.34
2023-09-08T12:03:53.571Z,101093.53
2023-09-08T12:06:59.200Z,101087.47
2023-09-08T12:10:08.391Z,101091.44
2023-09-08T12:13:11.245Z,101079.38
2023-09-08T12:16:25.957Z,101074.75
2023-09-08T12:19:32.219Z,101078.28
2023-09-08T12:22:34.394Z,101074.78
2023-09-08T12:25:46.048Z,101067.47
2023-09-08T12:28:48.372Z,101066.00
2023-09-08T12:31:50.010Z,101068.25
2023-09-08T12:34:55.768Z,101060.50
2023-09-08T12:38:02.351Z,101050.47
2023-09-08T12:41:04.004Z,101054.50
2023-09-08T12:44:05.925Z,101053.47
2023-09-08T12:47:08.052Z,101048.47
2023-09-08T12:50:11.000Z,101039.25
2023-09-08T12:53:12.645Z,101031.69
2023-09-08T12:56:14.271Z,101038.09
2023-09-08T12:59:20.900Z,101038.16
2023-09-08T13:02:23.168Z,101024.41
2023-09-08T13:05:24.792Z,101026.88
2023-09-08T13:08:26.478Z,101032.66
2023-09-08T13:11:29.064Z,101025.19
2023-09-08T13:14:30.708Z,101017.34
2023-09-08T13:17:32.449Z,101018.59
2023-09-08T13:20:34.130Z,101020.91
2023-09-08T13:23:35.755Z,101027.38
2023-09-08T13:26:38.710Z,101016.69
2023-09-08T13:29:41.509Z,101008.69
2023-09-08T13:32:44.106Z,101010.31
2023-09-08T13:35:45.917Z,101013.75
2023-09-08T13:38:47.498Z,101008.47
2023-09-08T13:41:53.786Z,101007.59
2023-09-08T13:44:56.644Z,101001.84
2023-09-08T13:47:58.771Z,100995.63
2023-09-08T13:51:06.512Z,100995.50
2023-09-08T13:54:09.988Z,100989.00
2023-09-08T13:57:14.907Z,100985.66
2023-09-08T14:00:18.159Z,100974.28
2023-09-08T14:03:23.895Z,100982.59
2023-09-08T14:06:30.627Z,100973.78
2023-09-08T14:09:43.790Z,100972.16
2023-09-08T14:12:50.331Z,100979.81
2023-09-08T14:15:52.034Z,100971.41
2023-09-08T14:18:53.874Z,100966.03
2023-09-08T14:21:55.493Z,100962.38
2023-09-08T14:24:57.124Z,100966.44
2023-09-08T14:28:01.132Z,100966.97
2023-09-08T14:31:03.681Z,100966.25
2023-09-08T14:34:05.435Z,100969.47
2023-09-08T14:37:10.696Z,100950.16
2023-09-08T14:40:13.471Z,100961.13
2023-09-08T14:43:15.119Z,100952.22
2023-09-08T14:46:16.900Z,100957.63
2023-09-08T14:49:18.528Z,100949.50
2023-09-08T14:52:21.919Z,100955.69
2023-09-08T14:55:23.770Z,100953.38
2023-09-08T14:58:26.100Z,100943.22
2023-09-08T15:01:27.926Z,100947.44
2023-09-08T15:04:29.605Z,100955.66
2023-09-08T15:07:31.253Z,100953.91
2023-09-08T15:10:32.975Z,100949.34
2023-09-08T15:13:34.870Z,100942.69
2023-09-08T15:16:36.862Z,100940.78
2023-09-08T15:19:38.531Z,100946.16
2023-09-08T15:22:40.185Z,100945.72
2023-09-08T15:25:41.874Z,100942.78
2023-09-08T15:28:43.516Z,100944.91
2023-09-08T15:31:45.200Z,100946.41
2023-09-08T15:34:51.143Z,100943.38
2023-09-08T15:37:52.766Z,100942.84
2023-09-08T15:41:09.767Z,100946.53
2023-09-08T15:44:11.432Z,100944.16
2023-09-08T15:47:13.114Z,100930.91
2023-09-08T15:50:14.828Z,100939.81
2023-09-08T15:53:16.425Z,100938.09
2023-09-08T15:56:18.061Z,100935.34
2023-09-08T15:59:19.650Z,100935.19
2023-09-08T16:02:21.353Z,100930.91
2023-09-08T16:05:22.997Z,100923.34
2023-09-08T16:08:25.451Z,100920.53
2023-09-08T16:11:27.215Z,100925.66
2023-09-08T16:14:28.872Z,100928.59
2023-09-08T16:17:30.579Z,100924.66
2023-09-08T16:20:32.790Z,100939.66
2023-09-08T16:23:34.612Z,100939.88
2023-09-08T16:26:36.721Z,100941.59
2023-09-08T16:29:40.311Z,100938.72
2023-09-08T16:32:42.003Z,100924.94
2023-09-08T16:35:43.807Z,100931.44
2023-09-08T16:38:45.450Z,100926.72
2023-09-08T16:41:47.084Z,100934.69
2023-09-08T16:44:48.791Z,100936.16
2023-09-08T16:47:50.532Z,100925.19
2023-09-08T16:50:52.204Z,100934.50
2023-09-08T16:53:53.855Z,100945.09
2023-09-08T16:56:55.625Z,100940.84
2023-09-08T16:59:57.276Z,100933.47
2023-09-08T17:02:59.037Z,100941.63
2023-09-08T17:06:00.847Z,100936.53
2023-09-08T17:09:02.702Z,100946.09
2023-09-08T17:12:08.159Z,100936.59
2023-09-08T17:15:10.327Z,100945.75
2023-09-08T17:18:12.029Z,100952.38
2023-09-08T17:21:13.733Z,100954.81
2023-09-08T17:24:15.490Z,100956.84
2023-09-08T17:27:18.019Z,100955.94
2023-09-08T17:30:19.650Z,100950.66
2023-09-08T17:33:21.625Z,100961.53
2023-09-08T17:36:23.339Z,100962.28
2023-09-08T17:39:25.303Z,100970.47
2023-09-08T17:42:26.906Z,100967.44
2023-09-08T17:45:28.590Z,100970.25
2023-09-08T17:48:30.324Z,100972.41
2023-09-08T17:51:32.069Z,100972.31
2023-09-08T17:54:33.756Z,100971.81
2023-09-08T17:57:36.131Z,100969.38
2023-09-08T18:00:37.831Z,100967.28
2023-09-08T18:03:40.115Z,100980.69
2023-09-08T18:06:42.276Z,100984.50
2023-09-08T18:09:43.871Z,100984.19
2023-09-08T18:12:45.585Z,100988.38
2023-09-08T18:15:47.283Z,100989.97
2023-09-08T18:18:49.804Z,100990.09
2023-09-08T18:21:51.510Z,100984.22
2023-09-08T18:24:53.710Z,100988.84
2023-09-08T18:27:55.314Z,100994.78
2023-09-08T18:30:57.483Z,100992.84
2023-09-08T18:33:59.448Z,100984.91
2023-09-08T18:37:01.045Z,100981.94
2023-09-08T18:40:04.432Z,100984.81
2023-09-08T18:43:06.095Z,100982.22
2023-09-08T18:46:07.885Z,100980.38
2023-09-08T18:49:09.632Z,100978.44
2023-09-08T18:52:11.272Z,100980.09
2023-09-08T18:55:12.888Z,100965.31
2023-09-08T18:58:14.669Z,100972.50
2023-09-08T19:01:16.519Z,100968.72
2023-09-08T19:04:18.129Z,100984.09
2023-09-08T19:07:19.772Z,100982.50
2023-09-08T19:10:21.517Z,100977.09
2023-09-08T19:13:23.547Z,100984.22
2023-09-08T19:16:25.254Z,100978.56
2023-09-08T19:19:27.155Z,100976.91
2023-09-08T19:22:28.897Z,100974.63
2023-09-08T19:25:30.532Z,100971.19
2023-09-08T19:28:32.134Z,100975.25
2023-09-08T19:31:33.895Z,100977.13
2023-09-08T19:34:35.889Z,100965.97
2023-09-08T19:37:37.570Z,100977.13
2023-09-08T19:40:39.173Z,100978.31
2023-09-08T19:43:41.177Z,100963.69
2023-09-08T19:46:42.888Z,100962.56
2023-09-08T19:49:44.806Z,100969.59
2023-09-08T19:52:46.496Z,100967.94
2023-09-08T19:55:48.444Z,100969.28
2023-09-08T19:58:52.147Z,100970.94
2023-09-08T20:01:54.012Z,100974.94
2023-09-08T20:04:55.642Z,100974.47
2023-09-08T20:07:57.246Z,100971.00
2023-09-08T20:10:59.109Z,100976.47
2023-09-08T20:14:00.850Z,100978.88
2023-09-08T20:17:04.587Z,100979.69
2023-09-08T20:20:07.274Z,100964.56
2023-09-08T20:23:12.897Z,100975.44
2023-09-08T20:26:15.285Z,100980.09
2023-09-08T20:29:17.042Z,100977.84
2023-09-08T20:32:18.857Z,100970.66
2023-09-08T20:35:20.492Z,100977.72
2023-09-08T20:38:22.148Z,100970.06
2023-09-08T20:41:23.996Z,100974.25
2023-09-08T20:44:25.614Z,100973.78
2023-09-08T20:47:27.279Z,100978.28
2023-09-08T20:50:30.073Z,100979.94
2023-09-08T20:53:32.589Z,100982.94
2023-09-08T20:56:34.226Z,100977.78
2023-09-08T20:59:36.167Z,100975.13
2023-09-08T21:02:37.799Z,100983.13
2023-09-08T21:05:39.453Z,100986.97
2023-09-08T21:08:41.074Z,100983.47
2023-09-08T21:11:42.705Z,100989.81
2023-09-08T21:14:44.781Z,100973.97
2023-09-08T21:17:46.446Z,100988.31
2023-09-08T21:20:49.012Z,100989.81
2023-09-08T21:23:50.729Z,100992.50
2023-09-08T21:26:52.406Z,100994.97
2023-09-08T21:29:55.034Z,100985.97
2023-09-08T21:32:56.719Z,100992.50
2023-09-08T21:35:58.466Z,100989.28
2023-09-08T21:39:02.371Z,100987.28
2023-09-08T21:42:04.691Z,100980.78
2023-09-08T21:45:07.567Z,100999.78
2023-09-08T21:48:09.219Z,100993.44
2023-09-08T21:51:10.978Z,100996.94
2023-09-08T21:54:12.762Z,100998.75
2023-09-08T21:57:14.399Z,100990.25
2023-09-08T22:00:22.125Z,100990.25
2023-09-08T22:03:24.259Z,100980.75
2023-09-08T22:06:26.040Z,100990.91
2023-09-08T22:09:27.847Z,100978.59
2023-09-08T22:12:29.475Z,100983.09
2023-09-08T22:15:31.339Z,100990.44
2023-09-08T22:18:33.471Z,100984.28
2023-09-08T22:21:35.188Z,100980.41
2023-09-08T22:24:36.852Z,100983.09
2023-09-08T22:27:39.632Z,100977.59
2023-09-08T22:30:41.202Z,100974.94
2023-09-08T22:33:43.957Z,100968.75
2023-09-08T22:36:45.874Z,100977.56
2023-09-08T22:39:47.492Z,100979.91
2023-09-08T22:42:50.836Z,100978.41
2023-09-08T22:45:52.545Z,100976.06
2023-09-08T22:48:54.234Z,100972.41
2023-09-08T22:51:55.911Z,100975.69
2023-09-08T22:55:08.788Z,100973.16
2023-09-08T22:58:16.115Z,100985.97
2023-09-08T23:01:17.855Z,100976.28
2023-09-08T23:04:19.556Z,100969.78
2023-09-08T23:07:21.628Z,100972.63
2023-09-08T23:10:23.276Z,100970.97
2023-09-08T23:13:25.145Z,100964.59
2023-09-08T23:16:26.877Z,100975.28
2023-09-08T23:19:28.962Z,100976.09
2023-09-08T23:22:30.589Z,100974.78
2023-09-08T23:25:32.203Z,100965.22
2023-09-08T23:28:33.930Z,100967.53
2023-09-08T23:31:35.671Z,100969.22
2023-09-08T23:34:37.509Z,100971.06
2023-09-08T23:37:39.171Z,100969.72
2023-09-08T23:40:40.852Z,100974.88
2023-09-08T23:43:42.567Z,100965.16
2023-09-08T23:46:44.301Z,100969.34
2023-09-08T23:49:46.006Z,100966.38
2023-09-08T23:52:47.597Z,100961.19
2023-09-08T23:55:50.125Z,100966.00
2023-09-08T23:58:51.903Z,100968.16
